Little Valley, Nevada Weather observations

Data are for 10 minute period ending at time listed.
 Day   Time    Ave.   Ave.  Ave.  Vector   Max.   Total    Solar   
  of    of     Air    Rel.  Wind   Wind    Wind  Precip.   Rad.    
Year   Day     Temp.  Hum.  Speed  Dir.    Gust                    
2016   (PST)    F      %     mph   deg.    mph     in.     W/m2    
------------------------------------------------------------------- 
 267   19:00   43.0    65    1.0    81      3.0   16.70       3  
 267   20:00   39.0    66    1.0   231      5.0   16.70       0  
 267   21:00   35.0    71    1.0   234      4.0   16.70       0  
 267   22:00   33.0    75    0.0   340      4.0   16.70       0  
 267   23:00   31.0    81    0.0    77      3.0   16.70       0  
 268    0:00   29.0    82    1.0   304      3.0   16.70       0  
 268    1:00   28.0    88    2.0   205      4.0   16.70       0  
 268    2:00   27.0    90    0.0   178      3.0   16.70       0  
 268    3:00   26.0    91    1.0   211      3.0   16.70       0  
 268    4:00   26.0    92    1.0   153      4.0   16.70       0  
 268    5:00   25.0    93    1.0    43      3.0   16.70       0  
 268    6:00   24.0    95    0.0   174      2.0   16.70       0  
 268    7:00   26.0    94    0.0    73      2.0   16.70      10  
 268    8:00   40.0    79    0.0    71      2.0   16.70     200  
 268    9:00   55.0    54    2.0    75      7.0   16.70     409  
 268   10:00   56.0    49    4.0    57      8.0   16.70     581  
 268   11:00   60.0    39    3.0   111     12.0   16.70     714  
 268   12:00   63.0    29    4.0    80     13.0   16.70     795  
 268   13:00   64.0    30    5.0   111     12.0   16.70     810  
 268   14:00   67.0    31    4.0   131     13.0   16.70     756  
 268   15:00   69.0    27    3.0    48     14.0   16.70     648  
 268   16:00   69.0    22    4.0    72     10.0   16.70     493  
 268   17:00   61.0    26    3.0   267     11.0   16.70     256  
 268   18:00   47.0    53    1.0   184      4.0   16.70      13  

Return to Little Valley, Nevada graphs page.


Western Regional Climate Center,wrcc@dri.edu